sensor_id;sensor_type;location;lat;lon;timestamp;pressure;altitude;pressure_sealevel;temperature;humidity
67430;BME280;54298;52.076;5.264;2022-12-18T00:01:00;102768.0;;;-1.93;79.91
67430;BME280;54298;52.076;5.264;2022-12-18T00:02:36;102772.0;;;-1.77;79.74
67430;BME280;54298;52.076;5.264;2022-12-18T00:05:58;102764.00000000001;;;-1.82;79.39
67430;BME280;54298;52.076;5.264;2022-12-18T00:07:36;102761.99999999999;;;-1.76;79.36
67430;BME280;54298;52.076;5.264;2022-12-18T00:09:12;102759.99999999999;;;-1.91;79.52
67430;BME280;54298;52.076;5.264;2022-12-18T00:10:48;102757.0;;;-1.93;79.41
67430;BME280;54298;52.076;5.264;2022-12-18T00:14:00;102754.0;;;-1.95;79.55
67430;BME280;54298;52.076;5.264;2022-12-18T00:15:38;102747.0;;;-1.95;79.47
67430;BME280;54298;52.076;5.264;2022-12-18T00:17:14;102742.0;;;-2.04;79.45
67430;BME280;54298;52.076;5.264;2022-12-18T00:20:35;102736.99999999999;;;-1.97;79.38
67430;BME280;54298;52.076;5.264;2022-12-18T00:22:12;102740.00000000001;;;-2.02;79.52
67430;BME280;54298;52.076;5.264;2022-12-18T00:23:49;102738.00000000001;;;-2.17;80.12
67430;BME280;54298;52.076;5.264;2022-12-18T00:25:26;102732.0;;;-2.2;80.03
67430;BME280;54298;52.076;5.264;2022-12-18T00:28:39;102742.0;;;-2.26;80.27
67430;BME280;54298;52.076;5.264;2022-12-18T00:30:16;102742.0;;;-2.16;80.13
67430;BME280;54298;52.076;5.264;2022-12-18T00:31:52;102748.0;;;-2.06;79.94
67430;BME280;54298;52.076;5.264;2022-12-18T00:35:06;102743.0;;;-2.1;79.97
67430;BME280;54298;52.076;5.264;2022-12-18T00:36:43;102734.99999999999;;;-2.08;80.05
67430;BME280;54298;52.076;5.264;2022-12-18T00:38:19;102736.99999999999;;;-2.11;79.98
67430;BME280;54298;52.076;5.264;2022-12-18T00:39:55;102738.00000000001;;;-2.11;80.03
67430;BME280;54298;52.076;5.264;2022-12-18T00:43:08;102736.99999999999;;;-2.25;80.19
67430;BME280;54298;52.076;5.264;2022-12-18T00:44:45;102745.0;;;-2.27;80.7
67430;BME280;54298;52.076;5.264;2022-12-18T00:46:21;102744.0;;;-2.1;80.34
67430;BME280;54298;52.076;5.264;2022-12-18T00:49:33;102742.0;;;-2.14;80.25
67430;BME280;54298;52.076;5.264;2022-12-18T00:51:09;102741.00000000001;;;-2.04;79.66
67430;BME280;54298;52.076;5.264;2022-12-18T00:52:45;102741.00000000001;;;-2.17;79.91
67430;BME280;54298;52.076;5.264;2022-12-18T00:55:59;102738.00000000001;;;-2.24;80.42
67430;BME280;54298;52.076;5.264;2022-12-18T00:57:35;102742.0;;;-2.26;80.3
67430;BME280;54298;52.076;5.264;2022-12-18T01:00:47;102736.99999999999;;;-2.13;79.89
67430;BME280;54298;52.076;5.264;2022-12-18T01:04:01;102739.00000000001;;;-2.1;79.7
67430;BME280;54298;52.076;5.264;2022-12-18T01:05:39;102733.99999999999;;;-2.11;79.61
67430;BME280;54298;52.076;5.264;2022-12-18T01:07:15;102738.00000000001;;;-2.12;79.72
67430;BME280;54298;52.076;5.264;2022-12-18T01:10:28;102742.0;;;-2.2;79.83
67430;BME280;54298;52.076;5.264;2022-12-18T01:12:05;102745.0;;;-2.16;79.89
67430;BME280;54298;52.076;5.264;2022-12-18T01:13:41;102742.0;;;-2.15;79.58
67430;BME280;54298;52.076;5.264;2022-12-18T01:16:55;102742.0;;;-2.26;79.55
67430;BME280;54298;52.076;5.264;2022-12-18T01:18:32;102741.00000000001;;;-2.09;79.28
67430;BME280;54298;52.076;5.264;2022-12-18T01:20:10;102738.00000000001;;;-2.09;79.08
67430;BME280;54298;52.076;5.264;2022-12-18T01:21:47;102736.99999999999;;;-2.09;79.13
67430;BME280;54298;52.076;5.264;2022-12-18T01:25:03;102736.99999999999;;;-2.19;79.38
67430;BME280;54298;52.076;5.264;2022-12-18T01:26:41;102743.0;;;-2.21;79.3
67430;BME280;54298;52.076;5.264;2022-12-18T01:28:16;102753.0;;;-2.35;79.59
67430;BME280;54298;52.076;5.264;2022-12-18T01:31:32;102746.0;;;-2.24;79.52
67430;BME280;54298;52.076;5.264;2022-12-18T01:33:09;102743.0;;;-2.22;79.42
67430;BME280;54298;52.076;5.264;2022-12-18T01:34:45;102746.0;;;-2.34;79.69
67430;BME280;54298;52.076;5.264;2022-12-18T01:36:24;102750.0;;;-2.36;80.02
67430;BME280;54298;52.076;5.264;2022-12-18T01:39:37;102749.0;;;-2.33;79.72
67430;BME280;54298;52.076;5.264;2022-12-18T01:41:15;102756.0;;;-2.33;79.91
67430;BME280;54298;52.076;5.264;2022-12-18T01:42:55;102758.0;;;-2.35;80.12
67430;BME280;54298;52.076;5.264;2022-12-18T01:46:57;102751.0;;;-2.31;80.08
67430;BME280;54298;52.076;5.264;2022-12-18T01:50:11;102755.0;;;-2.44;80.16
67430;BME280;54298;52.076;5.264;2022-12-18T01:51:50;102758.99999999999;;;-2.66;80.95
67430;BME280;54298;52.076;5.264;2022-12-18T01:53:28;102759.99999999999;;;-2.41;80.11
67430;BME280;54298;52.076;5.264;2022-12-18T01:56:42;102756.0;;;-2.39;79.77
67430;BME280;54298;52.076;5.264;2022-12-18T01:58:18;102758.0;;;-2.52;79.63
67430;BME280;54298;52.076;5.264;2022-12-18T02:00:01;102761.99999999999;;;-2.46;79.25
67430;BME280;54298;52.076;5.264;2022-12-18T02:01:43;102759.99999999999;;;-2.44;78.98
67430;BME280;54298;52.076;5.264;2022-12-18T02:04:56;102763.00000000001;;;-2.61;79.19
67430;BME280;54298;52.076;5.264;2022-12-18T02:06:36;102761.99999999999;;;-2.59;79.3
67430;BME280;54298;52.076;5.264;2022-12-18T02:08:21;102755.0;;;-2.8;79.77
67430;BME280;54298;52.076;5.264;2022-12-18T02:10:06;102763.00000000001;;;-2.79;79.55
67430;BME280;54298;52.076;5.264;2022-12-18T02:13:36;102765.00000000001;;;-2.87;79.61
67430;BME280;54298;52.076;5.264;2022-12-18T02:15:22;102772.0;;;-2.91;79.84
67430;BME280;54298;52.076;5.264;2022-12-18T02:17:06;102771.0;;;-2.99;80.19
67430;BME280;54298;52.076;5.264;2022-12-18T02:18:49;102771.0;;;-2.92;79.67
67430;BME280;54298;52.076;5.264;2022-12-18T02:20:32;102773.0;;;-2.96;79.75
67430;BME280;54298;52.076;5.264;2022-12-18T02:24:16;102768.0;;;-3.0;79.61
67430;BME280;54298;52.076;5.264;2022-12-18T02:26:06;102767.0;;;-2.97;79.55
67430;BME280;54298;52.076;5.264;2022-12-18T02:27:49;102770.0;;;-3.14;80.05
67430;BME280;54298;52.076;5.264;2022-12-18T02:29:31;102775.0;;;-3.13;80.0
67430;BME280;54298;52.076;5.264;2022-12-18T02:31:14;102761.99999999999;;;-3.14;80.03
67430;BME280;54298;52.076;5.264;2022-12-18T02:34:32;102767.0;;;-3.16;79.83
67430;BME280;54298;52.076;5.264;2022-12-18T02:36:13;102761.99999999999;;;-3.16;79.49
67430;BME280;54298;52.076;5.264;2022-12-18T02:37:53;102757.0;;;-3.29;79.28
67430;BME280;54298;52.076;5.264;2022-12-18T02:39:30;102758.0;;;-3.08;78.59
67430;BME280;54298;52.076;5.264;2022-12-18T02:41:09;102758.0;;;-3.03;78.16
67430;BME280;54298;52.076;5.264;2022-12-18T02:44:22;102766.00000000001;;;-3.24;78.42
67430;BME280;54298;52.076;5.264;2022-12-18T02:46:00;102764.00000000001;;;-3.28;78.63
67430;BME280;54298;52.076;5.264;2022-12-18T02:47:56;102750.0;;;-3.32;78.52
67430;BME280;54298;52.076;5.264;2022-12-18T02:49:36;102747.0;;;-3.53;79.08
67430;BME280;54298;52.076;5.264;2022-12-18T02:53:10;102755.0;;;-3.72;79.49
67430;BME280;54298;52.076;5.264;2022-12-18T02:54:57;102756.0;;;-3.94;80.27
67430;BME280;54298;52.076;5.264;2022-12-18T02:56:46;102750.0;;;-4.02;80.64
67430;BME280;54298;52.076;5.264;2022-12-18T02:58:31;102750.0;;;-4.07;80.8
67430;BME280;54298;52.076;5.264;2022-12-18T03:03:38;102742.0;;;-4.11;81.09
67430;BME280;54298;52.076;5.264;2022-12-18T03:05:18;102742.0;;;-3.98;80.41
67430;BME280;54298;52.076;5.264;2022-12-18T03:07:02;102742.0;;;-4.01;80.14
67430;BME280;54298;52.076;5.264;2022-12-18T03:08:44;102738.00000000001;;;-4.05;79.91
67430;BME280;54298;52.076;5.264;2022-12-18T03:12:08;102734.99999999999;;;-4.19;79.75
67430;BME280;54298;52.076;5.264;2022-12-18T03:13:52;102727.0;;;-3.94;79.3
67430;BME280;54298;52.076;5.264;2022-12-18T03:15:35;102725.0;;;-3.88;78.66
67430;BME280;54298;52.076;5.264;2022-12-18T03:17:16;102722.0;;;-3.9;78.39
67430;BME280;54298;52.076;5.264;2022-12-18T03:18:57;102718.0;;;-4.05;78.78
67430;BME280;54298;52.076;5.264;2022-12-18T03:22:20;102713.00000000001;;;-4.28;79.62
67430;BME280;54298;52.076;5.264;2022-12-18T03:24:00;102707.0;;;-4.42;79.91
67430;BME280;54298;52.076;5.264;2022-12-18T03:25:39;102708.99999999999;;;-4.36;79.77
67430;BME280;54298;52.076;5.264;2022-12-18T03:27:20;102703.0;;;-4.44;79.59
67430;BME280;54298;52.076;5.264;2022-12-18T03:30:44;102708.99999999999;;;-4.6;79.59
67430;BME280;54298;52.076;5.264;2022-12-18T03:32:27;102702.0;;;-4.23;79.05
67430;BME280;54298;52.076;5.264;2022-12-18T03:34:09;102698.0;;;-4.21;78.7
67430;BME280;54298;52.076;5.264;2022-12-18T03:35:49;102696.0;;;-4.22;78.45
67430;BME280;54298;52.076;5.264;2022-12-18T03:39:02;102698.0;;;-4.29;78.36
67430;BME280;54298;52.076;5.264;2022-12-18T03:40:54;102696.0;;;-4.44;78.77
67430;BME280;54298;52.076;5.264;2022-12-18T03:42:40;102696.0;;;-4.53;79.16
67430;BME280;54298;52.076;5.264;2022-12-18T03:44:27;102699.0;;;-4.62;79.58
67430;BME280;54298;52.076;5.264;2022-12-18T03:46:12;102702.0;;;-4.63;79.66
67430;BME280;54298;52.076;5.264;2022-12-18T03:49:41;102702.0;;;-4.66;79.44
67430;BME280;54298;52.076;5.264;2022-12-18T03:51:25;102700.0;;;-4.45;78.92
67430;BME280;54298;52.076;5.264;2022-12-18T03:53:14;102697.0;;;-4.45;78.69
67430;BME280;54298;52.076;5.264;2022-12-18T03:54:56;102692.0;;;-4.41;78.09
67430;BME280;54298;52.076;5.264;2022-12-18T03:56:37;102693.0;;;-4.42;78.03
67430;BME280;54298;52.076;5.264;2022-12-18T03:59:59;102684.99999999999;;;-4.43;77.8
67430;BME280;54298;52.076;5.264;2022-12-18T04:01:39;102690.00000000001;;;-4.47;78.14
67430;BME280;54298;52.076;5.264;2022-12-18T04:03:19;102681.0;;;-4.58;78.27
67430;BME280;54298;52.076;5.264;2022-12-18T04:04:59;102679.0;;;-4.65;78.7
67430;BME280;54298;52.076;5.264;2022-12-18T04:08:16;102668.0;;;-4.65;78.55
67430;BME280;54298;52.076;5.264;2022-12-18T04:09:55;102675.0;;;-4.82;79.23
67430;BME280;54298;52.076;5.264;2022-12-18T04:11:32;102670.0;;;-4.73;79.22
67430;BME280;54298;52.076;5.264;2022-12-18T04:14:45;102664.00000000001;;;-4.67;78.98
67430;BME280;54298;52.076;5.264;2022-12-18T04:16:21;102656.0;;;-4.71;79.09
67430;BME280;54298;52.076;5.264;2022-12-18T04:17:57;102653.0;;;-4.68;79.3
67430;BME280;54298;52.076;5.264;2022-12-18T04:19:33;102652.0;;;-4.6;79.13
67430;BME280;54298;52.076;5.264;2022-12-18T04:22:47;102656.0;;;-4.58;79.05
67430;BME280;54298;52.076;5.264;2022-12-18T04:24:24;102650.0;;;-4.57;79.25
67430;BME280;54298;52.076;5.264;2022-12-18T04:26:00;102649.0;;;-4.53;79.22
67430;BME280;54298;52.076;5.264;2022-12-18T04:29:12;102652.0;;;-4.69;79.34
67430;BME280;54298;52.076;5.264;2022-12-18T04:30:48;102649.0;;;-4.55;79.39
67430;BME280;54298;52.076;5.264;2022-12-18T04:32:24;102645.0;;;-4.56;79.36
67430;BME280;54298;52.076;5.264;2022-12-18T04:35:37;102654.0;;;-4.59;79.66
67430;BME280;54298;52.076;5.264;2022-12-18T04:37:13;102654.0;;;-4.46;79.42
67430;BME280;54298;52.076;5.264;2022-12-18T04:38:49;102661.99999999999;;;-4.45;79.38
67430;BME280;54298;52.076;5.264;2022-12-18T04:40:25;102667.0;;;-4.38;79.27
67430;BME280;54298;52.076;5.264;2022-12-18T04:43:38;102673.0;;;-4.42;79.24
67430;BME280;54298;52.076;5.264;2022-12-18T04:45:14;102680.0;;;-4.33;79.05
67430;BME280;54298;52.076;5.264;2022-12-18T04:46:50;102679.0;;;-4.35;79.05
67430;BME280;54298;52.076;5.264;2022-12-18T04:50:03;102679.0;;;-4.28;78.94
67430;BME280;54298;52.076;5.264;2022-12-18T04:51:40;102689.00000000001;;;-4.35;78.97
67430;BME280;54298;52.076;5.264;2022-12-18T04:53:16;102683.0;;;-4.35;78.77
67430;BME280;54298;52.076;5.264;2022-12-18T04:56:30;102686.99999999999;;;-4.29;78.72
67430;BME280;54298;52.076;5.264;2022-12-18T04:58:07;102683.99999999999;;;-4.3;78.78
67430;BME280;54298;52.076;5.264;2022-12-18T04:59:43;102692.0;;;-4.35;78.97
67430;BME280;54298;52.076;5.264;2022-12-18T05:01:19;102694.0;;;-4.28;78.83
67430;BME280;54298;52.076;5.264;2022-12-18T05:04:32;102700.0;;;-4.35;79.02
67430;BME280;54298;52.076;5.264;2022-12-18T05:06:08;102702.0;;;-4.22;78.84
67430;BME280;54298;52.076;5.264;2022-12-18T05:07:45;102703.0;;;-4.29;78.89
67430;BME280;54298;52.076;5.264;2022-12-18T05:11:00;102708.0;;;-4.2;78.66
67430;BME280;54298;52.076;5.264;2022-12-18T05:12:37;102705.0;;;-4.2;78.47
67430;BME280;54298;52.076;5.264;2022-12-18T05:14:13;102707.0;;;-4.28;78.63
67430;BME280;54298;52.076;5.264;2022-12-18T05:17:28;102709.99999999999;;;-4.32;78.91
67430;BME280;54298;52.076;5.264;2022-12-18T05:19:04;102713.00000000001;;;-4.29;78.69
67430;BME280;54298;52.076;5.264;2022-12-18T05:20:40;102709.99999999999;;;-4.29;78.73
67430;BME280;54298;52.076;5.264;2022-12-18T05:22:17;102716.00000000001;;;-4.29;78.61
67430;BME280;54298;52.076;5.264;2022-12-18T05:25:29;102711.99999999999;;;-4.26;78.61
67430;BME280;54298;52.076;5.264;2022-12-18T05:27:05;102719.0;;;-4.3;78.53
67430;BME280;54298;52.076;5.264;2022-12-18T05:28:41;102718.0;;;-4.38;78.81
67430;BME280;54298;52.076;5.264;2022-12-18T05:31:54;102725.0;;;-4.22;77.98
67430;BME280;54298;52.076;5.264;2022-12-18T05:33:32;102723.0;;;-4.19;77.83
67430;BME280;54298;52.076;5.264;2022-12-18T05:35:10;102725.0;;;-4.23;77.91
67430;BME280;54298;52.076;5.264;2022-12-18T05:38:25;102717.0;;;-4.18;77.72
67430;BME280;54298;52.076;5.264;2022-12-18T05:40:03;102716.00000000001;;;-4.2;77.63
67430;BME280;54298;52.076;5.264;2022-12-18T05:41:40;102705.0;;;-4.23;77.61
67430;BME280;54298;52.076;5.264;2022-12-18T05:43:16;102707.0;;;-4.22;77.63
67430;BME280;54298;52.076;5.264;2022-12-18T05:46:30;102698.0;;;-4.34;77.56
67430;BME280;54298;52.076;5.264;2022-12-18T05:48:06;102694.0;;;-4.3;77.91
67430;BME280;54298;52.076;5.264;2022-12-18T05:49:43;102696.0;;;-4.35;78.08
67430;BME280;54298;52.076;5.264;2022-12-18T05:52:57;102699.0;;;-4.36;77.92
67430;BME280;54298;52.076;5.264;2022-12-18T05:54:34;102696.0;;;-4.35;77.92
67430;BME280;54298;52.076;5.264;2022-12-18T05:56:13;102699.0;;;-4.29;78.05
67430;BME280;54298;52.076;5.264;2022-12-18T05:57:50;102689.00000000001;;;-4.27;77.83
67430;BME280;54298;52.076;5.264;2022-12-18T06:01:07;102686.99999999999;;;-4.4;77.99
67430;BME280;54298;52.076;5.264;2022-12-18T06:02:46;102679.0;;;-4.43;78.06
67430;BME280;54298;52.076;5.264;2022-12-18T06:04:23;102679.0;;;-4.27;77.83
67430;BME280;54298;52.076;5.264;2022-12-18T06:07:35;102675.0;;;-4.29;77.83
67430;BME280;54298;52.076;5.264;2022-12-18T06:09:11;102672.0;;;-4.35;78.03
67430;BME280;54298;52.076;5.264;2022-12-18T06:10:50;102674.0;;;-4.32;78.08
67430;BME280;54298;52.076;5.264;2022-12-18T06:12:27;102668.0;;;-4.31;77.78
67430;BME280;54298;52.076;5.264;2022-12-18T06:15:41;102659.99999999999;;;-4.24;77.75
67430;BME280;54298;52.076;5.264;2022-12-18T06:17:17;102658.99999999999;;;-4.29;77.86
67430;BME280;54298;52.076;5.264;2022-12-18T06:18:56;102661.99999999999;;;-4.32;78.23
67430;BME280;54298;52.076;5.264;2022-12-18T06:22:08;102659.99999999999;;;-4.31;78.3
67430;BME280;54298;52.076;5.264;2022-12-18T06:23:44;102659.99999999999;;;-4.28;78.25
67430;BME280;54298;52.076;5.264;2022-12-18T06:25:20;102657.0;;;-4.27;78.19
67430;BME280;54298;52.076;5.264;2022-12-18T06:28:33;102664.00000000001;;;-4.23;78.14
67430;BME280;54298;52.076;5.264;2022-12-18T06:30:10;102663.00000000001;;;-4.27;78.08
67430;BME280;54298;52.076;5.264;2022-12-18T06:31:46;102667.0;;;-4.28;77.86
67430;BME280;54298;52.076;5.264;2022-12-18T06:33:26;102665.00000000001;;;-4.25;78.13
67430;BME280;54298;52.076;5.264;2022-12-18T06:36:40;102663.00000000001;;;-4.2;78.19
67430;BME280;54298;52.076;5.264;2022-12-18T06:38:16;102655.0;;;-4.36;78.36
67430;BME280;54298;52.076;5.264;2022-12-18T06:39:52;102653.0;;;-4.19;78.03
67430;BME280;54298;52.076;5.264;2022-12-18T06:43:05;102647.0;;;-4.13;77.98
67430;BME280;54298;52.076;5.264;2022-12-18T06:44:42;102644.0;;;-4.13;77.91
67430;BME280;54298;52.076;5.264;2022-12-18T06:46:18;102645.0;;;-4.13;77.74
67430;BME280;54298;52.076;5.264;2022-12-18T06:49:31;102633.0;;;-4.24;78.05
67430;BME280;54298;52.076;5.264;2022-12-18T06:51:07;102633.99999999999;;;-4.17;78.11
67430;BME280;54298;52.076;5.264;2022-12-18T06:52:43;102633.0;;;-4.34;78.11
67430;BME280;54298;52.076;5.264;2022-12-18T06:54:20;102628.0;;;-4.16;78.24
67430;BME280;54298;52.076;5.264;2022-12-18T06:57:37;102621.0;;;-4.2;78.23
67430;BME280;54298;52.076;5.264;2022-12-18T06:59:14;102622.0;;;-4.12;78.02
67430;BME280;54298;52.076;5.264;2022-12-18T07:00:50;102620.0;;;-4.13;77.97
67430;BME280;54298;52.076;5.264;2022-12-18T07:04:03;102617.0;;;-4.17;77.94
67430;BME280;54298;52.076;5.264;2022-12-18T07:05:40;102614.00000000001;;;-4.15;77.94
67430;BME280;54298;52.076;5.264;2022-12-18T07:07:17;102619.0;;;-4.23;78.33
67430;BME280;54298;52.076;5.264;2022-12-18T07:12:07;102617.0;;;-4.17;78.38
67430;BME280;54298;52.076;5.264;2022-12-18T07:13:44;102604.0;;;-4.16;78.42
67430;BME280;54298;52.076;5.264;2022-12-18T07:15:20;102608.0;;;-4.12;78.14
67430;BME280;54298;52.076;5.264;2022-12-18T07:18:33;102603.0;;;-4.11;78.05
67430;BME280;54298;52.076;5.264;2022-12-18T07:20:10;102599.0;;;-4.2;77.83
67430;BME280;54298;52.076;5.264;2022-12-18T07:21:46;102595.0;;;-4.11;78.09
67430;BME280;54298;52.076;5.264;2022-12-18T07:24:58;102590.00000000001;;;-4.17;78.05
67430;BME280;54298;52.076;5.264;2022-12-18T07:26:35;102592.0;;;-4.05;77.69
67430;BME280;54298;52.076;5.264;2022-12-18T07:31:24;102595.0;;;-4.13;77.91
67430;BME280;54298;52.076;5.264;2022-12-18T07:33:00;102595.0;;;-3.99;77.94
67430;BME280;54298;52.076;5.264;2022-12-18T07:34:37;102594.0;;;-4.02;77.91
67430;BME280;54298;52.076;5.264;2022-12-18T07:36:13;102592.0;;;-3.9;77.48
67430;BME280;54298;52.076;5.264;2022-12-18T07:39:26;102576.0;;;-3.94;77.61
67430;BME280;54298;52.076;5.264;2022-12-18T07:41:03;102564.00000000001;;;-3.91;77.55
67430;BME280;54298;52.076;5.264;2022-12-18T07:42:40;102563.00000000001;;;-3.93;77.8
67430;BME280;54298;52.076;5.264;2022-12-18T07:45:55;102565.00000000001;;;-3.88;77.72
67430;BME280;54298;52.076;5.264;2022-12-18T07:47:33;102558.0;;;-3.95;77.86
67430;BME280;54298;52.076;5.264;2022-12-18T07:49:10;102563.00000000001;;;-3.95;77.94
67430;BME280;54298;52.076;5.264;2022-12-18T07:50:47;102556.0;;;-3.99;78.33
67430;BME280;54298;52.076;5.264;2022-12-18T07:53:59;102551.0;;;-3.95;78.05
67430;BME280;54298;52.076;5.264;2022-12-18T07:55:35;102550.0;;;-3.81;77.74
67430;BME280;54298;52.076;5.264;2022-12-18T07:57:11;102548.0;;;-3.77;77.92
67430;BME280;54298;52.076;5.264;2022-12-18T08:00:24;102553.0;;;-3.76;77.72
67430;BME280;54298;52.076;5.264;2022-12-18T08:02:00;102551.0;;;-3.9;78.36
67430;BME280;54298;52.076;5.264;2022-12-18T08:03:38;102558.99999999999;;;-3.63;77.92
67430;BME280;54298;52.076;5.264;2022-12-18T08:06:51;102545.0;;;-3.54;77.67
67430;BME280;54298;52.076;5.264;2022-12-18T08:08:27;102532.0;;;-3.57;77.75
67430;BME280;54298;52.076;5.264;2022-12-18T08:10:05;102531.0;;;-3.67;78.28
67430;BME280;54298;52.076;5.264;2022-12-18T08:11:41;102528.0;;;-3.53;77.91
67430;BME280;54298;52.076;5.264;2022-12-18T08:14:54;102542.0;;;-3.57;78.2
67430;BME280;54298;52.076;5.264;2022-12-18T08:16:31;102545.0;;;-3.36;77.89
67430;BME280;54298;52.076;5.264;2022-12-18T08:18:07;102548.0;;;-3.37;77.72
67430;BME280;54298;52.076;5.264;2022-12-18T08:21:21;102552.0;;;-3.39;77.89
67430;BME280;54298;52.076;5.264;2022-12-18T08:22:58;102561.99999999999;;;-3.31;77.61
67430;BME280;54298;52.076;5.264;2022-12-18T08:24:34;102569.0;;;-3.35;77.63
67430;BME280;54298;52.076;5.264;2022-12-18T08:27:47;102569.0;;;-3.14;77.38
67430;BME280;54298;52.076;5.264;2022-12-18T08:29:24;102573.0;;;-3.14;77.2
67430;BME280;54298;52.076;5.264;2022-12-18T08:31:00;102570.0;;;-3.07;77.05
67430;BME280;54298;52.076;5.264;2022-12-18T08:32:36;102574.0;;;-3.06;76.94
67430;BME280;54298;52.076;5.264;2022-12-18T08:35:48;102567.0;;;-3.1;76.8
67430;BME280;54298;52.076;5.264;2022-12-18T08:37:24;102567.0;;;-3.04;76.83
67430;BME280;54298;52.076;5.264;2022-12-18T08:39:00;102573.0;;;-3.02;76.83
67430;BME280;54298;52.076;5.264;2022-12-18T08:42:12;102575.0;;;-3.06;77.16
67430;BME280;54298;52.076;5.264;2022-12-18T08:43:48;102577.0;;;-2.89;76.75
67430;BME280;54298;52.076;5.264;2022-12-18T08:45:25;102563.00000000001;;;-2.85;76.47
67430;BME280;54298;52.076;5.264;2022-12-18T08:48:37;102565.00000000001;;;-2.92;76.69
67430;BME280;54298;52.076;5.264;2022-12-18T08:50:14;102558.0;;;-2.86;76.61
67430;BME280;54298;52.076;5.264;2022-12-18T08:51:54;102553.0;;;-2.83;76.53
67430;BME280;54298;52.076;5.264;2022-12-18T08:53:30;102553.0;;;-2.76;76.25
67430;BME280;54298;52.076;5.264;2022-12-18T08:56:44;102558.0;;;-2.8;76.28
67430;BME280;54298;52.076;5.264;2022-12-18T08:58:21;102558.99999999999;;;-2.84;76.2
67430;BME280;54298;52.076;5.264;2022-12-18T08:59:57;102561.99999999999;;;-2.68;75.99
67430;BME280;54298;52.076;5.264;2022-12-18T09:03:11;102552.0;;;-2.97;76.62
67430;BME280;54298;52.076;5.264;2022-12-18T09:04:48;102542.0;;;-2.96;77.0
67430;BME280;54298;52.076;5.264;2022-12-18T09:06:24;102549.0;;;-2.81;76.81
67430;BME280;54298;52.076;5.264;2022-12-18T09:09:36;102547.0;;;-2.83;76.86
67430;BME280;54298;52.076;5.264;2022-12-18T09:11:15;102544.0;;;-2.87;76.97
67430;BME280;54298;52.076;5.264;2022-12-18T09:12:54;102550.0;;;-2.64;76.61
67430;BME280;54298;52.076;5.264;2022-12-18T09:14:30;102567.0;;;-2.6;76.27
67430;BME280;54298;52.076;5.264;2022-12-18T09:17:43;102559.99999999999;;;-2.67;76.52
67430;BME280;54298;52.076;5.264;2022-12-18T09:19:19;102563.00000000001;;;-2.49;76.27
67430;BME280;54298;52.076;5.264;2022-12-18T09:20:55;102558.0;;;-2.42;76.09
67430;BME280;54298;52.076;5.264;2022-12-18T09:24:12;102548.0;;;-2.58;76.22
67430;BME280;54298;52.076;5.264;2022-12-18T09:25:49;102561.99999999999;;;-2.58;76.33
67430;BME280;54298;52.076;5.264;2022-12-18T09:27:25;102558.99999999999;;;-2.43;75.55
67430;BME280;54298;52.076;5.264;2022-12-18T09:30:39;102563.00000000001;;;-2.53;76.3
67430;BME280;54298;52.076;5.264;2022-12-18T09:32:16;102563.00000000001;;;-2.36;75.99
67430;BME280;54298;52.076;5.264;2022-12-18T09:33:54;102557.0;;;-2.37;76.02
67430;BME280;54298;52.076;5.264;2022-12-18T09:35:30;102541.00000000001;;;-2.31;75.67
67430;BME280;54298;52.076;5.264;2022-12-18T09:38:43;102542.0;;;-2.38;76.0
67430;BME280;54298;52.076;5.264;2022-12-18T09:40:23;102542.0;;;-2.23;75.69
67430;BME280;54298;52.076;5.264;2022-12-18T09:42:01;102528.0;;;-2.1;75.11
67430;BME280;54298;52.076;5.264;2022-12-18T09:45:21;102530.0;;;-2.1;75.33
67430;BME280;54298;52.076;5.264;2022-12-18T09:47:04;102522.0;;;-2.36;75.62
67430;BME280;54298;52.076;5.264;2022-12-18T09:48:48;102520.0;;;-2.09;75.16
67430;BME280;54298;52.076;5.264;2022-12-18T09:50:29;102515.00000000001;;;-2.03;75.16
67430;BME280;54298;52.076;5.264;2022-12-18T09:52:12;102521.0;;;-2.12;75.14
67430;BME280;54298;52.076;5.264;2022-12-18T09:55:35;102517.0;;;-1.93;74.78
67430;BME280;54298;52.076;5.264;2022-12-18T09:57:15;102522.0;;;-1.83;74.41
67430;BME280;54298;52.076;5.264;2022-12-18T09:58:58;102517.0;;;-1.97;74.86
67430;BME280;54298;52.076;5.264;2022-12-18T10:00:35;102520.0;;;-1.84;74.52
67430;BME280;54298;52.076;5.264;2022-12-18T10:03:52;102505.0;;;-1.74;74.34
67430;BME280;54298;52.076;5.264;2022-12-18T10:05:34;102508.0;;;-1.66;74.3
67430;BME280;54298;52.076;5.264;2022-12-18T10:07:28;102508.0;;;-1.64;74.27
67430;BME280;54298;52.076;5.264;2022-12-18T10:09:15;102508.0;;;-1.74;74.39
67430;BME280;54298;52.076;5.264;2022-12-18T10:11:01;102500.0;;;-1.58;74.23
67430;BME280;54298;52.076;5.264;2022-12-18T10:14:36;102493.0;;;-1.54;74.19
67430;BME280;54298;52.076;5.264;2022-12-18T10:16:19;102499.0;;;-1.45;73.75
67430;BME280;54298;52.076;5.264;2022-12-18T10:18:10;102504.0;;;-1.4;73.41
67430;BME280;54298;52.076;5.264;2022-12-18T10:19:59;102508.99999999999;;;-1.3;73.34
67430;BME280;54298;52.076;5.264;2022-12-18T10:21:42;102508.0;;;-1.35;73.03
67430;BME280;54298;52.076;5.264;2022-12-18T10:25:18;102506.0;;;-1.31;72.97
67430;BME280;54298;52.076;5.264;2022-12-18T10:26:59;102507.0;;;-1.39;73.2
67430;BME280;54298;52.076;5.264;2022-12-18T10:28:45;102506.0;;;-1.26;73.11
67430;BME280;54298;52.076;5.264;2022-12-18T10:30:24;102504.0;;;-1.19;72.91
67430;BME280;54298;52.076;5.264;2022-12-18T10:32:01;102509.99999999999;;;-1.11;72.41
67430;BME280;54298;52.076;5.264;2022-12-18T10:35:18;102494.0;;;-1.25;72.66
67430;BME280;54298;52.076;5.264;2022-12-18T10:36:56;102486.99999999999;;;-1.12;72.77
67430;BME280;54298;52.076;5.264;2022-12-18T10:38:32;102495.0;;;-1.03;72.19
67430;BME280;54298;52.076;5.264;2022-12-18T10:41:49;102490.00000000001;;;-0.96;72.05
67430;BME280;54298;52.076;5.264;2022-12-18T10:43:26;102492.0;;;-1.08;72.36
67430;BME280;54298;52.076;5.264;2022-12-18T10:45:09;102480.0;;;-0.88;71.87
67430;BME280;54298;52.076;5.264;2022-12-18T10:46:53;102470.0;;;-0.82;71.91
67430;BME280;54298;52.076;5.264;2022-12-18T10:50:18;102465.00000000001;;;-0.72;71.47
67430;BME280;54298;52.076;5.264;2022-12-18T10:52:05;102461.99999999999;;;-0.66;71.27